Airfield :
LOGIN :

Register | Disclaimer

   EN    FR    IT 

 










Legend :    VFR   Marginal VFR   IFR   Intensive IFR   Very Intensive IFR
Visi :
Ceiling :
>= 8 km
>= 3000ft
5 to 8 km
1000 to 3000 ft
1500m to 5 km
500 to 1000 ft
800 to 1500m
200 to 500 ft
< 800m
< 200 ft
Symbols :   Thunderstorms  Fog  Heavy snow  Heavy precipitations  Wind > 20 kt
SIGMETs :     Misc.  Thunderstorms  Icing  Turbulence  Mountain Waves  Volcanic Ashes







- Airport Elevation : 16 ft
- IATA code : EAS


LESO - San Sebastian Fuenterrabia

CURRENT METAR :
  • 262330Z AUTO 17001KT 9999 FEW018/// 20/19 Q1011

EXPIRED METARs :
  • 262300Z AUTO 00000KT 9999 FEW018/// 21/19 Q1012
  • 262230Z AUTO 00000KT 9999 SCT017/// 21/19 Q1012
  • 262200Z AUTO VRB02KT 9999 FEW015/// 21/19 Q1012
  • 262130Z AUTO 21004KT 170V270 9999 FEW030/// 22/19 Q1012
  • 262100Z AUTO 26004KT 190V340 9999 SCT031/// 22/19 Q1012

TAF TAF LESO
Valid from the 27 at 00:00 until the 28 at 00:00 UTC


262300Z 2700/2724 27009KT 9999 SCT014 BKN030 TX23/2714Z TN19/2706Z
TEMPO 2700/2709 BKN010
PROB30
TEMPO 2700/2709 3000 BR BKN008
TEMPO 2712/2724 33010KT RA SHRA BKN014 SCT030TCU
PROB40
TEMPO 2712/2724 3000 TSRA SCT030CB
No reported NOTAMs for that airfield.



MET'MAP, your aeronautical weather chart ! - Copyright ORBIFLY December 2007 - Disclaimer

ORBIFLY MET'MAP TEAM :

Programming & Development : Alexandra Zaïnal
Concept & Development : Baudouin d'Aumeries
Co-Development & Prog : Marc-Olivier Méhu
Technical & hardware support : Manuel Goepfert

Contact : metmap@orbifly.com




SOURCES & CREDITS :

   NOAA